createdAt,value
2023-05-22T00:02:00.304Z,17.53
2023-05-22T00:05:02.848Z,17.39
2023-05-22T00:08:06.395Z,17.47
2023-05-22T00:11:08.229Z,17.45
2023-05-22T00:14:10.122Z,17.39
2023-05-22T00:17:15.140Z,17.21
2023-05-22T00:20:17.208Z,17.27
2023-05-22T00:23:19.039Z,17.18
2023-05-22T00:26:23.333Z,17.06
2023-05-22T00:29:25.097Z,17.04
2023-05-22T00:32:27.378Z,16.95
2023-05-22T00:35:29.478Z,16.89
2023-05-22T00:38:33.336Z,16.93
2023-05-22T00:41:35.627Z,16.75
2023-05-22T00:44:37.624Z,16.80
2023-05-22T00:47:39.699Z,16.72
2023-05-22T00:50:42.320Z,16.67
2023-05-22T00:53:45.102Z,16.60
2023-05-22T00:56:47.744Z,16.25
2023-05-22T00:59:49.870Z,16.45
2023-05-22T01:02:51.965Z,16.32
2023-05-22T01:05:54.987Z,16.37
2023-05-22T01:08:57.833Z,16.23
2023-05-22T01:12:38.554Z,16.26
2023-05-22T01:15:57.461Z,16.20
2023-05-22T01:19:26.196Z,16.06
2023-05-22T01:22:51.187Z,16.06
2023-05-22T01:26:19.103Z,16.04
2023-05-22T01:29:46.301Z,16.05
2023-05-22T01:32:49.833Z,15.94
2023-05-22T01:35:56.048Z,15.76
2023-05-22T01:39:01.760Z,15.52
2023-05-22T01:42:04.417Z,15.34
2023-05-22T01:45:08.999Z,15.07
2023-05-22T01:48:12.466Z,15.18
2023-05-22T01:51:24.002Z,15.22
2023-05-22T01:54:52.843Z,15.02
2023-05-22T01:58:01.071Z,14.99
2023-05-22T02:01:03.929Z,14.88
2023-05-22T02:04:06.651Z,14.93
2023-05-22T02:07:13.962Z,15.03
2023-05-22T02:10:17.177Z,14.85
2023-05-22T02:13:19.288Z,15.10
2023-05-22T02:16:22.313Z,15.03
2023-05-22T02:19:24.799Z,15.04
2023-05-22T02:22:26.768Z,15.03
2023-05-22T02:25:28.529Z,14.95
2023-05-22T02:28:30.620Z,14.91
2023-05-22T02:31:32.430Z,14.83
2023-05-22T02:34:35.090Z,14.79
2023-05-22T02:37:37.222Z,14.78
2023-05-22T02:40:39.365Z,14.46
2023-05-22T02:43:41.759Z,14.80
2023-05-22T02:46:43.742Z,14.76
2023-05-22T02:49:46.071Z,14.74
2023-05-22T02:52:47.890Z,14.67
2023-05-22T02:55:49.634Z,14.46
2023-05-22T02:58:51.414Z,14.58
2023-05-22T03:01:54.547Z,14.41
2023-05-22T03:04:59.649Z,14.53
2023-05-22T03:08:01.595Z,14.57
2023-05-22T03:11:03.551Z,14.48
2023-05-22T03:14:05.337Z,14.50
2023-05-22T03:17:07.122Z,14.19
2023-05-22T03:20:09.670Z,14.49
2023-05-22T03:23:13.064Z,14.49
2023-05-22T03:26:14.902Z,14.45
2023-05-22T03:29:16.859Z,14.54
2023-05-22T03:32:19.260Z,14.46
2023-05-22T03:35:21.631Z,14.37
2023-05-22T03:38:23.412Z,14.29
2023-05-22T03:41:25.646Z,14.31
2023-05-22T03:44:28.040Z,14.37
2023-05-22T03:47:30.269Z,14.22
2023-05-22T03:50:32.090Z,14.51
2023-05-22T03:53:33.980Z,14.55
2023-05-22T03:56:35.898Z,14.44
2023-05-22T03:59:37.915Z,14.39
2023-05-22T04:02:40.074Z,14.48
2023-05-22T04:05:41.919Z,14.55
2023-05-22T04:08:45.218Z,14.42
2023-05-22T04:11:48.824Z,14.76
2023-05-22T04:14:51.106Z,14.78
2023-05-22T04:17:53.606Z,14.93
2023-05-22T04:20:56.193Z,14.99
2023-05-22T04:23:57.958Z,14.97
2023-05-22T04:27:00.454Z,15.05
2023-05-22T04:30:02.843Z,15.09
2023-05-22T04:33:05.680Z,15.17
2023-05-22T04:36:12.386Z,15.22
2023-05-22T04:39:15.234Z,15.29
2023-05-22T04:42:17.555Z,15.29
2023-05-22T04:45:19.586Z,15.38
2023-05-22T04:48:21.388Z,15.40
2023-05-22T04:51:23.279Z,15.39
2023-05-22T04:54:25.353Z,15.41
2023-05-22T04:57:27.392Z,15.55
2023-05-22T05:00:29.282Z,15.56
2023-05-22T05:03:32.125Z,15.51
2023-05-22T05:06:34.834Z,15.66
2023-05-22T05:09:37.546Z,15.83
2023-05-22T05:12:39.500Z,15.99
2023-05-22T05:15:41.388Z,15.55
2023-05-22T05:18:43.454Z,16.46
2023-05-22T05:21:47.141Z,16.88
2023-05-22T05:24:49.221Z,16.89
2023-05-22T05:27:51.727Z,17.54
2023-05-22T05:30:55.697Z,17.90
2023-05-22T05:34:23.617Z,18.26
2023-05-22T05:37:31.069Z,18.71
2023-05-22T05:40:35.198Z,19.16
2023-05-22T05:43:38.079Z,19.56
2023-05-22T05:46:43.102Z,19.90
2023-05-22T05:49:45.448Z,20.15
2023-05-22T05:52:49.224Z,20.74
2023-05-22T05:55:53.582Z,21.14
2023-05-22T05:58:55.669Z,21.38
2023-05-22T06:02:03.410Z,21.43
2023-05-22T06:05:09.278Z,21.45
2023-05-22T06:08:15.591Z,21.86
2023-05-22T06:11:17.516Z,22.26
2023-05-22T06:14:28.414Z,22.26
2023-05-22T06:17:30.336Z,22.46
2023-05-22T06:20:32.905Z,22.60
2023-05-22T06:23:34.908Z,22.52
2023-05-22T06:26:37.064Z,22.70
2023-05-22T06:29:38.889Z,22.78
2023-05-22T06:32:41.790Z,23.08
2023-05-22T06:35:45.019Z,23.15
2023-05-22T06:38:47.187Z,23.49
2023-05-22T06:42:08.864Z,23.85
2023-05-22T06:45:42.530Z,24.27
2023-05-22T06:49:02.915Z,24.43
2023-05-22T06:52:16.661Z,24.70
2023-05-22T06:55:18.747Z,24.82
2023-05-22T06:58:33.254Z,24.92
2023-05-22T07:01:37.769Z,25.28
2023-05-22T07:04:44.661Z,25.53
2023-05-22T07:07:51.636Z,25.53
2023-05-22T07:10:53.528Z,25.32
2023-05-22T07:13:55.500Z,25.02
2023-05-22T07:16:57.986Z,25.64
2023-05-22T07:20:12.146Z,25.98
2023-05-22T07:23:18.717Z,25.80
2023-05-22T07:26:22.559Z,26.10
2023-05-22T07:29:33.942Z,26.23
2023-05-22T07:32:36.551Z,26.64
2023-05-22T07:35:38.966Z,27.01
2023-05-22T07:38:40.866Z,27.10
2023-05-22T07:41:50.255Z,27.13
2023-05-22T07:44:53.343Z,27.07
2023-05-22T07:47:58.991Z,27.20
2023-05-22T07:51:01.100Z,26.84
2023-05-22T07:54:03.363Z,26.81
2023-05-22T07:57:05.242Z,26.89
2023-05-22T08:00:13.733Z,26.93
2023-05-22T08:03:17.419Z,26.81
2023-05-22T08:06:19.861Z,27.09
2023-05-22T08:09:21.771Z,27.58
2023-05-22T08:12:23.744Z,27.97
2023-05-22T08:15:25.538Z,28.23
2023-05-22T08:18:29.231Z,28.60
2023-05-22T08:21:34.654Z,28.74
2023-05-22T08:24:36.697Z,28.83
2023-05-22T08:27:38.637Z,28.79
2023-05-22T08:30:40.702Z,28.41
2023-05-22T08:33:42.778Z,28.14
2023-05-22T08:36:44.573Z,28.17
2023-05-22T08:39:46.402Z,28.30
2023-05-22T08:42:48.689Z,28.48
2023-05-22T08:46:00.326Z,29.05
2023-05-22T08:49:03.569Z,29.39
2023-05-22T08:52:15.415Z,29.20
2023-05-22T08:55:19.589Z,29.62
2023-05-22T08:58:22.428Z,29.61
2023-05-22T09:01:24.849Z,29.68
2023-05-22T09:04:28.590Z,29.79
2023-05-22T09:07:30.558Z,29.85
2023-05-22T09:10:32.364Z,29.91
2023-05-22T09:13:34.170Z,29.85
2023-05-22T09:16:46.179Z,29.86
2023-05-22T09:19:47.960Z,30.10
2023-05-22T09:22:49.796Z,30.21
2023-05-22T09:25:56.118Z,30.30
2023-05-22T09:29:00.501Z,30.34
2023-05-22T09:32:02.487Z,30.48
2023-05-22T09:35:05.224Z,30.37
2023-05-22T09:38:10.190Z,29.84
2023-05-22T09:41:13.372Z,29.91
2023-05-22T09:44:16.172Z,30.12
2023-05-22T09:47:18.060Z,30.35
2023-05-22T09:50:20.016Z,30.53
2023-05-22T09:53:27.997Z,30.72
2023-05-22T09:56:39.302Z,30.78
2023-05-22T09:59:44.160Z,30.84
2023-05-22T10:02:49.242Z,30.78
2023-05-22T10:05:54.318Z,30.54
2023-05-22T10:09:05.190Z,30.67
2023-05-22T10:12:10.364Z,30.68
2023-05-22T10:15:12.996Z,30.60
2023-05-22T10:18:17.109Z,30.64
2023-05-22T10:21:20.110Z,30.67
2023-05-22T10:24:24.027Z,30.76
2023-05-22T10:27:25.794Z,30.76
2023-05-22T10:30:30.800Z,30.72
2023-05-22T10:34:01.153Z,30.17
2023-05-22T10:37:20.013Z,30.27
2023-05-22T10:40:30.542Z,30.18
2023-05-22T10:43:32.877Z,29.81
2023-05-22T10:46:34.865Z,30.40
2023-05-22T10:49:36.976Z,30.39
2023-05-22T10:52:40.186Z,30.49
2023-05-22T10:55:53.312Z,30.42
2023-05-22T10:59:05.036Z,30.18
2023-05-22T11:02:22.463Z,29.74
2023-05-22T11:05:25.894Z,29.61
2023-05-22T11:08:27.671Z,29.67
2023-05-22T11:11:29.680Z,29.76
2023-05-22T11:14:31.578Z,29.66
2023-05-22T11:17:40.034Z,29.72
2023-05-22T11:20:42.498Z,29.88
2023-05-22T11:23:45.609Z,29.96
2023-05-22T11:27:02.579Z,30.06
2023-05-22T11:30:05.138Z,30.02
2023-05-22T11:33:07.260Z,29.96
2023-05-22T11:36:09.875Z,30.04
2023-05-22T11:39:15.060Z,29.93
2023-05-22T11:42:18.676Z,29.64
2023-05-22T11:45:20.645Z,29.46
2023-05-22T11:48:23.773Z,29.43
2023-05-22T11:51:27.105Z,29.65
2023-05-22T11:54:32.548Z,29.80
2023-05-22T11:57:37.756Z,29.74
2023-05-22T12:00:39.765Z,29.38
2023-05-22T12:03:42.183Z,29.35
2023-05-22T12:06:44.605Z,29.09
2023-05-22T12:09:46.450Z,29.30
2023-05-22T12:12:48.386Z,29.07
2023-05-22T12:15:50.261Z,29.27
2023-05-22T12:18:54.929Z,29.27
2023-05-22T12:21:57.350Z,29.33
2023-05-22T12:24:59.174Z,29.25
2023-05-22T12:28:00.980Z,29.21
2023-05-22T12:31:02.765Z,29.10
2023-05-22T12:34:07.336Z,29.20
2023-05-22T12:37:28.423Z,29.03
2023-05-22T12:40:30.818Z,29.18
2023-05-22T12:43:32.915Z,29.15
2023-05-22T12:46:35.019Z,29.17
2023-05-22T12:49:36.828Z,28.92
2023-05-22T12:52:38.642Z,28.78
2023-05-22T12:55:41.356Z,29.04
2023-05-22T12:58:43.870Z,29.10
2023-05-22T13:01:45.768Z,29.14
2023-05-22T13:04:47.962Z,28.91
2023-05-22T13:07:49.895Z,28.88
2023-05-22T13:10:51.727Z,29.06
2023-05-22T13:13:53.725Z,29.09
2023-05-22T13:16:55.700Z,29.07
2023-05-22T13:19:58.290Z,29.08
2023-05-22T13:23:00.239Z,29.11
2023-05-22T13:26:02.836Z,29.05
2023-05-22T13:29:04.996Z,29.00
2023-05-22T13:32:06.887Z,28.92
2023-05-22T13:35:09.287Z,28.92
2023-05-22T13:38:11.105Z,28.83
2023-05-22T13:41:12.939Z,28.80
2023-05-22T13:44:14.883Z,28.80
2023-05-22T13:47:16.692Z,28.65
2023-05-22T13:50:19.352Z,28.89
2023-05-22T13:53:21.179Z,28.91
2023-05-22T13:56:23.509Z,28.90
2023-05-22T13:59:25.800Z,28.88
2023-05-22T14:02:28.160Z,28.85
2023-05-22T14:05:31.038Z,28.88
2023-05-22T14:08:32.869Z,28.89
2023-05-22T14:11:34.597Z,28.66
2023-05-22T14:14:36.700Z,28.51
2023-05-22T14:17:38.571Z,28.46
2023-05-22T14:20:41.530Z,28.27
2023-05-22T14:23:43.377Z,28.18
2023-05-22T14:26:45.513Z,28.15
2023-05-22T14:29:47.958Z,28.18
2023-05-22T14:32:49.982Z,28.22
2023-05-22T14:35:52.624Z,28.18
2023-05-22T14:38:57.021Z,28.18
2023-05-22T14:41:58.851Z,28.10
2023-05-22T14:45:00.948Z,28.10
2023-05-22T14:48:02.750Z,27.31
2023-05-22T14:51:04.556Z,28.21
2023-05-22T14:54:06.979Z,28.06
2023-05-22T14:57:08.905Z,27.92
2023-05-22T15:00:12.293Z,28.00
2023-05-22T15:03:14.380Z,27.94
2023-05-22T15:06:17.178Z,27.94
2023-05-22T15:09:18.990Z,27.90
2023-05-22T15:12:22.563Z,27.80
2023-05-22T15:15:24.658Z,27.77
2023-05-22T15:18:27.358Z,27.82
2023-05-22T15:21:29.469Z,27.15
2023-05-22T15:24:31.369Z,27.50
2023-05-22T15:27:37.197Z,27.33
2023-05-22T15:30:41.955Z,27.44
2023-05-22T15:33:43.944Z,27.35
2023-05-22T15:36:45.730Z,27.45
2023-05-22T15:39:47.495Z,27.34
2023-05-22T15:42:50.550Z,27.34
2023-05-22T15:45:52.443Z,27.30
2023-05-22T15:48:54.423Z,27.31
2023-05-22T15:51:56.188Z,27.28
2023-05-22T15:54:58.901Z,27.28
2023-05-22T15:58:02.805Z,27.20
2023-05-22T16:01:04.802Z,27.13
2023-05-22T16:04:06.574Z,26.80
2023-05-22T16:07:08.347Z,26.96
2023-05-22T16:10:10.925Z,26.87
2023-05-22T16:13:13.467Z,26.86
2023-05-22T16:16:16.475Z,26.81
2023-05-22T16:19:18.505Z,26.74
2023-05-22T16:22:21.317Z,26.75
2023-05-22T16:25:23.278Z,26.78
2023-05-22T16:28:25.037Z,26.67
2023-05-22T16:31:26.956Z,26.65
2023-05-22T16:34:29.837Z,26.38
2023-05-22T16:37:32.853Z,26.52
2023-05-22T16:40:34.603Z,26.39
2023-05-22T16:43:38.235Z,26.27
2023-05-22T16:46:40.117Z,26.28
2023-05-22T16:49:42.387Z,26.21
2023-05-22T16:52:44.201Z,25.95
2023-05-22T16:55:46.357Z,26.16
2023-05-22T16:58:48.311Z,26.06
2023-05-22T17:01:51.902Z,25.99
2023-05-22T17:04:54.543Z,25.90
2023-05-22T17:07:56.305Z,25.95
2023-05-22T17:10:58.128Z,25.86
2023-05-22T17:13:59.868Z,25.84
2023-05-22T17:17:01.896Z,25.87
2023-05-22T17:20:09.025Z,25.66
2023-05-22T17:23:10.922Z,25.53
2023-05-22T17:26:15.597Z,25.36
2023-05-22T17:29:17.915Z,25.28
2023-05-22T17:32:20.222Z,25.18
2023-05-22T17:35:22.160Z,25.08
2023-05-22T17:38:23.920Z,24.91
2023-05-22T17:41:26.559Z,24.85
2023-05-22T17:44:28.540Z,24.76
2023-05-22T17:47:30.368Z,24.47
2023-05-22T17:50:32.181Z,24.47
2023-05-22T17:53:34.841Z,24.46
2023-05-22T17:56:37.616Z,24.43
2023-05-22T17:59:40.648Z,24.45
2023-05-22T18:02:42.971Z,24.39
2023-05-22T18:05:45.049Z,24.28
2023-05-22T18:08:47.739Z,24.08
2023-05-22T18:11:53.871Z,23.92
2023-05-22T18:14:55.725Z,23.78
2023-05-22T18:17:57.597Z,23.67
2023-05-22T18:20:59.483Z,23.54
2023-05-22T18:24:01.319Z,23.40
2023-05-22T18:27:03.963Z,23.37
2023-05-22T18:30:06.794Z,23.30
2023-05-22T18:33:08.617Z,23.19
2023-05-22T18:36:11.147Z,23.09
2023-05-22T18:39:13.021Z,22.94
2023-05-22T18:42:15.225Z,22.87
2023-05-22T18:45:17.035Z,22.80
2023-05-22T18:48:19.499Z,22.55
2023-05-22T18:51:21.433Z,22.64
2023-05-22T18:54:23.565Z,22.50
2023-05-22T18:57:25.501Z,22.49
2023-05-22T19:00:27.254Z,22.41
2023-05-22T19:03:29.025Z,22.25
2023-05-22T19:06:30.877Z,22.09
2023-05-22T19:09:32.766Z,22.00
2023-05-22T19:12:34.604Z,21.94
2023-05-22T19:15:37.693Z,21.70
2023-05-22T19:18:39.744Z,21.77
2023-05-22T19:21:41.490Z,21.70
2023-05-22T19:24:43.428Z,21.59
2023-05-22T19:27:45.276Z,21.45
2023-05-22T19:30:47.257Z,21.34
2023-05-22T19:33:49.029Z,21.32
2023-05-22T19:36:52.251Z,21.24
2023-05-22T19:39:54.290Z,21.19
2023-05-22T19:42:56.079Z,21.13
2023-05-22T19:45:58.444Z,21.03
2023-05-22T19:49:00.341Z,20.92
2023-05-22T19:52:02.657Z,20.83
2023-05-22T19:55:05.232Z,20.81
2023-05-22T19:58:07.105Z,20.74
2023-05-22T20:01:09.006Z,20.76
2023-05-22T20:04:11.357Z,20.66
2023-05-22T20:07:13.950Z,20.63
2023-05-22T20:10:16.182Z,20.58
2023-05-22T20:13:17.953Z,20.29
2023-05-22T20:16:20.258Z,20.39
2023-05-22T20:19:24.322Z,20.33
2023-05-22T20:22:27.380Z,20.33
2023-05-22T20:25:29.175Z,20.27
2023-05-22T20:28:30.987Z,20.24
2023-05-22T20:31:32.742Z,20.07
2023-05-22T20:34:35.511Z,20.06
2023-05-22T20:37:38.465Z,19.99
2023-05-22T20:40:46.519Z,19.91
2023-05-22T20:43:48.921Z,19.97
2023-05-22T20:46:53.277Z,19.68
2023-05-22T20:49:55.090Z,19.83
2023-05-22T20:52:57.099Z,19.67
2023-05-22T20:55:59.048Z,19.63
2023-05-22T20:59:00.813Z,19.64
2023-05-22T21:02:04.742Z,19.62
2023-05-22T21:05:06.825Z,19.55
2023-05-22T21:08:08.742Z,19.55
2023-05-22T21:11:10.596Z,19.47
2023-05-22T21:14:12.470Z,19.45
2023-05-22T21:17:14.256Z,19.38
2023-05-22T21:20:16.218Z,19.37
2023-05-22T21:23:17.996Z,19.29
2023-05-22T21:26:22.385Z,19.22
2023-05-22T21:29:24.524Z,19.14
2023-05-22T21:32:26.304Z,19.12
2023-05-22T21:35:28.206Z,19.04
2023-05-22T21:38:29.987Z,18.96
2023-05-22T21:41:31.816Z,18.93
2023-05-22T21:44:33.611Z,18.87
2023-05-22T21:47:35.671Z,18.82
2023-05-22T21:50:37.560Z,18.83
2023-05-22T21:53:42.708Z,18.81
2023-05-22T21:56:44.513Z,18.81
2023-05-22T21:59:50.873Z,18.84
2023-05-22T22:02:52.856Z,18.81
2023-05-22T22:05:54.725Z,18.83
2023-05-22T22:08:58.819Z,18.73
2023-05-22T22:12:02.574Z,18.76
2023-05-22T22:15:04.725Z,18.27
2023-05-22T22:18:06.570Z,18.77
2023-05-22T22:21:08.449Z,18.73
2023-05-22T22:24:10.184Z,18.69
2023-05-22T22:27:12.159Z,18.64
2023-05-22T22:30:13.939Z,18.58
2023-05-22T22:33:15.798Z,18.52
2023-05-22T22:36:19.100Z,18.46
2023-05-22T22:39:20.866Z,18.44
2023-05-22T22:42:22.593Z,18.46
2023-05-22T22:45:24.364Z,18.39
2023-05-22T22:48:26.129Z,18.35
2023-05-22T22:51:30.933Z,18.36
2023-05-22T22:54:32.713Z,18.28
2023-05-22T22:57:34.581Z,18.19
2023-05-22T23:00:39.297Z,18.05
2023-05-22T23:03:41.102Z,18.02
2023-05-22T23:06:42.926Z,17.98
2023-05-22T23:09:44.779Z,17.85
2023-05-22T23:12:48.378Z,17.74
2023-05-22T23:15:50.314Z,17.76
2023-05-22T23:18:52.195Z,17.70
2023-05-22T23:21:54.000Z,17.64
2023-05-22T23:24:55.753Z,17.55
2023-05-22T23:27:57.582Z,17.56
2023-05-22T23:30:59.791Z,17.43
2023-05-22T23:34:01.708Z,17.32
2023-05-22T23:37:03.509Z,17.24
2023-05-22T23:40:06.780Z,17.19
2023-05-22T23:43:08.526Z,17.12
2023-05-22T23:46:13.275Z,17.15
2023-05-22T23:49:15.164Z,17.14
2023-05-22T23:52:17.026Z,17.09
2023-05-22T23:55:19.089Z,17.09
2023-05-22T23:58:20.993Z,17.07
